createdAt,value
2023-08-14T00:02:25.167Z,0
2023-08-14T00:08:11.121Z,0
2023-08-14T00:13:43.828Z,0
2023-08-14T00:19:11.637Z,0
2023-08-14T00:24:48.745Z,0
2023-08-14T00:30:41.984Z,0
2023-08-14T00:36:15.449Z,0
2023-08-14T00:41:54.340Z,0
2023-08-14T00:47:12.554Z,0
2023-08-14T00:52:34.824Z,0
2023-08-14T00:58:10.917Z,0
2023-08-14T01:03:54.885Z,0
2023-08-14T01:09:31.128Z,0
2023-08-14T01:15:16.883Z,0
2023-08-14T01:20:36.655Z,0
2023-08-14T01:26:28.041Z,0
2023-08-14T01:31:38.114Z,0
2023-08-14T01:37:24.441Z,0
2023-08-14T01:42:59.523Z,0
2023-08-14T01:59:45.274Z,0
2023-08-14T02:05:26.356Z,0
2023-08-14T02:10:46.232Z,0
2023-08-14T02:16:18.252Z,0
2023-08-14T02:22:09.177Z,0
2023-08-14T02:27:36.495Z,0
2023-08-14T02:32:52.483Z,0
2023-08-14T02:44:07.821Z,0
2023-08-14T02:49:37.336Z,0
2023-08-14T02:55:31.470Z,0
2023-08-14T03:00:51.906Z,0
2023-08-14T03:06:38.758Z,0
2023-08-14T03:12:07.411Z,0
2023-08-14T03:17:30.025Z,0
2023-08-14T03:23:23.588Z,0
2023-08-14T03:28:43.861Z,0
2023-08-14T03:34:21.035Z,0
2023-08-14T03:39:46.952Z,0
2023-08-14T03:45:34.967Z,0
2023-08-14T03:51:08.887Z,0
2023-08-14T03:56:45.333Z,0
2023-08-14T04:02:18.846Z,0
2023-08-14T04:07:48.205Z,0
2023-08-14T04:13:19.492Z,0
2023-08-14T04:18:43.422Z,0
2023-08-14T04:24:33.687Z,0
2023-08-14T04:29:59.182Z,0
2023-08-14T04:35:19.723Z,0
2023-08-14T04:41:05.315Z,0
2023-08-14T04:46:32.121Z,0
2023-08-14T04:52:30.435Z,0
2023-08-14T04:57:48.757Z,0
2023-08-14T05:03:42.797Z,0
2023-08-14T05:08:50.472Z,0
2023-08-14T05:14:28.832Z,0
2023-08-14T05:20:00.033Z,0
2023-08-14T05:25:41.903Z,0
2023-08-14T05:31:21.215Z,0
2023-08-14T05:36:51.250Z,0
2023-08-14T05:42:34.686Z,0
2023-08-14T05:48:04.723Z,0
2023-08-14T05:53:21.983Z,0
2023-08-14T05:58:53.843Z,0
2023-08-14T06:04:54.912Z,0
2023-08-14T06:10:20.878Z,0
2023-08-14T06:16:03.568Z,0
2023-08-14T06:21:15.525Z,0
2023-08-14T06:27:09.464Z,0
2023-08-14T06:32:46.840Z,0
2023-08-14T06:38:25.882Z,0
2023-08-14T06:55:14.597Z,0
2023-08-14T07:00:35.645Z,0
2023-08-14T07:05:57.792Z,0
2023-08-14T07:12:02.574Z,0
2023-08-14T07:17:16.964Z,0
2023-08-14T07:23:05.665Z,0
2023-08-14T07:28:29.540Z,0
2023-08-14T07:34:19.645Z,0
2023-08-14T07:40:02.065Z,0
2023-08-14T07:45:26.568Z,3.6
2023-08-14T07:50:54.012Z,3.6
2023-08-14T07:56:30.044Z,0
2023-08-14T08:02:11.925Z,0
2023-08-14T08:07:44.770Z,2.4
2023-08-14T08:13:14.384Z,5.9
2023-08-14T08:24:45.024Z,3.6
2023-08-14T08:30:07.042Z,0
2023-08-14T08:35:47.630Z,0
2023-08-14T08:41:34.474Z,0
2023-08-14T08:47:14.830Z,3.6
2023-08-14T08:52:43.329Z,5.9
2023-08-14T09:09:31.318Z,8.4
2023-08-14T09:15:33.117Z,8.4
2023-08-14T09:20:49.111Z,9.6
2023-08-14T09:26:25.108Z,9.6
2023-08-14T09:32:17.235Z,8.4
2023-08-14T09:37:55.551Z,10.7
2023-08-14T09:43:19.417Z,10.7
2023-08-14T09:54:37.581Z,13.2
2023-08-14T10:00:20.285Z,10.7
2023-08-14T10:05:57.453Z,9.6
2023-08-14T10:11:40.044Z,7.2
2023-08-14T10:16:58.356Z,5.9
2023-08-14T10:22:44.823Z,4.8
2023-08-14T10:28:11.993Z,4.8
2023-08-14T10:33:47.914Z,4.8
2023-08-14T10:39:26.478Z,5.9
2023-08-14T10:45:16.482Z,7.2
2023-08-14T10:50:49.054Z,4.8
2023-08-14T10:56:21.489Z,4.8
2023-08-14T11:02:15.223Z,5.9
2023-08-14T11:07:41.189Z,5.9
2023-08-14T11:13:17.794Z,7.2
2023-08-14T11:19:08.772Z,7.2
2023-08-14T11:24:34.766Z,9.6
2023-08-14T11:36:11.196Z,5.9
2023-08-14T11:41:45.462Z,3.6
2023-08-14T11:47:20.299Z,7.2
2023-08-14T11:53:03.982Z,5.9
2023-08-14T11:58:18.499Z,7.2
2023-08-14T12:04:11.100Z,8.4
2023-08-14T12:09:35.161Z,5.9
2023-08-14T12:15:32.551Z,4.8
2023-08-14T12:20:51.786Z,5.9
2023-08-14T12:26:45.662Z,8.4
2023-08-14T12:32:18.842Z,4.8
2023-08-14T12:37:42.330Z,4.8
2023-08-14T12:43:19.664Z,3.6
2023-08-14T12:54:30.261Z,3.6
2023-08-14T13:00:32.147Z,4.8
2023-08-14T13:05:53.976Z,4.8
2023-08-14T13:11:30.964Z,5.9
2023-08-14T13:16:57.909Z,4.8
2023-08-14T13:22:54.833Z,8.4
2023-08-14T13:40:00.150Z,10.7
2023-08-14T13:45:18.504Z,11.9
2023-08-14T13:51:11.211Z,10.7
2023-08-14T13:56:50.425Z,9.6
2023-08-14T14:02:25.354Z,7.2
2023-08-14T14:08:11.315Z,11.9
2023-08-14T14:13:35.112Z,13.2
2023-08-14T14:19:15.109Z,5.9
2023-08-14T14:24:47.727Z,8.4
2023-08-14T14:30:50.668Z,7.2
2023-08-14T14:36:24.260Z,4.8
2023-08-14T14:41:54.211Z,5.9
2023-08-14T14:47:42.590Z,4.8
2023-08-14T14:53:07.349Z,4.8
2023-08-14T14:58:55.139Z,5.9
2023-08-14T15:04:40.283Z,5.9
2023-08-14T15:10:20.876Z,7.2
2023-08-14T15:15:45.011Z,10.7
2023-08-14T15:21:25.115Z,8.4
2023-08-14T15:27:06.992Z,5.9
2023-08-14T15:32:38.812Z,4.8
2023-08-14T15:38:21.429Z,3.6
2023-08-14T15:43:57.248Z,5.9
2023-08-14T15:49:37.857Z,2.4
2023-08-14T15:55:09.715Z,2.4
2023-08-14T16:01:01.794Z,3.6
2023-08-14T16:06:35.626Z,2.4
2023-08-14T16:12:12.785Z,3.6
2023-08-14T16:18:05.465Z,3.6
2023-08-14T16:29:09.327Z,3.6
2023-08-14T16:34:33.984Z,3.6
2023-08-14T16:40:19.122Z,2.4
2023-08-14T16:46:06.357Z,3.6
2023-08-14T16:51:45.215Z,3.6
2023-08-14T16:57:17.809Z,3.6
2023-08-14T17:03:53.554Z,4.8
2023-08-14T17:19:53.736Z,8.4
2023-08-14T17:25:45.356Z,7.2
2023-08-14T17:31:26.871Z,7.2
2023-08-14T17:37:05.191Z,5.9
2023-08-14T17:42:18.001Z,4.8
2023-08-14T17:48:12.620Z,2.4
2023-08-14T17:59:31.312Z,0
2023-08-14T18:05:06.201Z,0
2023-08-14T18:10:35.665Z,0
2023-08-14T18:16:25.359Z,0
2023-08-14T18:21:39.227Z,0
2023-08-14T18:27:22.306Z,4.8
2023-08-14T18:32:51.134Z,7.2
2023-08-14T18:38:27.487Z,8.4
2023-08-14T18:44:08.504Z,5.9
2023-08-14T18:50:04.927Z,8.4
2023-08-14T18:55:14.008Z,8.4
2023-08-14T19:00:49.768Z,4.8
2023-08-14T19:06:46.515Z,3.6
2023-08-14T19:12:08.207Z,8.4
2023-08-14T19:17:38.189Z,8.4
2023-08-14T19:23:34.641Z,7.2
2023-08-14T19:34:47.153Z,8.4
2023-08-14T19:40:09.987Z,7.2
2023-08-14T19:45:36.693Z,8.4
2023-08-14T19:51:25.476Z,9.6
2023-08-14T19:56:56.579Z,9.6
2023-08-14T20:02:33.679Z,10.7
2023-08-14T20:08:07.362Z,8.4
2023-08-14T20:13:55.784Z,4.8
2023-08-14T20:19:33.691Z,13.2
2023-08-14T20:25:08.178Z,8.4
2023-08-14T20:30:52.665Z,7.2
2023-08-14T20:36:13.810Z,0
2023-08-14T20:41:43.069Z,2.4
2023-08-14T20:47:14.235Z,9.6
2023-08-14T20:53:11.265Z,7.2
2023-08-14T20:58:44.048Z,3.6
2023-08-14T21:04:13.269Z,7.2
2023-08-14T21:09:40.578Z,8.4
2023-08-14T21:15:26.112Z,9.6
2023-08-14T21:20:54.620Z,9.6
2023-08-14T21:26:43.141Z,5.9
2023-08-14T21:32:06.367Z,5.9
2023-08-14T21:37:38.700Z,7.2
2023-08-14T21:54:26.985Z,0
2023-08-14T22:00:00.099Z,3.6
2023-08-14T22:05:36.591Z,3.6
2023-08-14T22:11:06.944Z,5.9
2023-08-14T22:17:07.199Z,7.2
2023-08-14T22:22:16.401Z,5.9
2023-08-14T22:28:16.624Z,4.8
2023-08-14T22:33:33.793Z,7.2
2023-08-14T22:39:04.267Z,4.8
2023-08-14T22:44:58.908Z,8.4
2023-08-14T22:50:25.409Z,3.6
2023-08-14T22:55:51.216Z,0
2023-08-14T23:01:25.363Z,0
2023-08-14T23:06:57.900Z,0
2023-08-14T23:13:00.370Z,0
2023-08-14T23:18:25.511Z,0
2023-08-14T23:23:41.774Z,0
2023-08-14T23:29:26.677Z,0
2023-08-14T23:35:12.043Z,2.4
2023-08-14T23:40:42.495Z,0
2023-08-14T23:46:28.718Z,5.9
2023-08-14T23:51:56.749Z,9.6
2023-08-14T23:57:26.606Z,3.6
